Briefing drone pour Brazey-en-plaine

Rechercher une autre localisation

Conditions de vol :


Nous sommes le : Dimanche 07 mars 2021
Il est 03:26 UTC (04:26 LT)

Lever de soleil : 05:40 UTC (06:40 LT)
Coucher de soleil : 17:59 UTC (18:59 LT)

Météo

L'essentiel des conditions de vol

VIGILANCE MÉTÉO FRANCE - Côte-dOr (21)
Pas de vigilances particulieres
CARTE TEMSI
CARTES DES FRONTS
METAR de LFSD
LFSD 070300Z AUTO 30003KT CAVOK M01/M03 Q1024

Date d'émission: 07/03/2021
Heure d'émission: 03:00 UTC
Vent: 300° pour 3 KT (6 km/h)
Visibilité horizontale: > 10 km
Plafond : Plafond et visibilité OK (CAVOK)
Température: -1 °C
Point de rosée: -3 °C
Humidité: 86%
Pression (QNH): 1024 hPa
TAF de LFSD
LFSD 010600Z 0100/0124 CNL

Conditions prévues :

Heure d'émission : Bulletin éffectué le 01 à 00:00 UTC
Prévision : Valide du 01 a 00:00 UTC au 01 a 23:59 UTC
Nuages : à 0ft (0 m)
WEBCAM POUR BRAZEY-EN-PLAINE

Réglementation

Voler en sécurité

CARTES AERONAUTIQUE 1/500.000
CARTES VAC (LFSD)
SUP AIP




Chargement des AIP...
NOTAM (BRAZEY-EN-PLAINE + Terrain à proximité / FIR )




Chargement des NOTAMS...
CONTACT PREFECTURE 21
Côte-dOr (21) : pref-drone@cote-dor.gouv.fr


Avertissement : Les données mises à disposition sont indicatives. Oxygène Drone ne pourra être tenu responsable de dégâts causés aux biens et aux personnes.